Time;durP1;ratioP1;P1;durP2;ratioP2;P2;SDS_P1;SDS_P2;PMS_P1;PMS_P2;Temp;Humidity;BMP_temperature;BMP_pressure;BME280_temperature;BME280_humidity;BME280_pressure;Samples;Min_cycle;Max_cycle;Signal;HPM_P1;HPM_P2
2023/02/09 00:00:27;;;;;;;11.95;4.88;;;;;;;;;;4936891;28;20065;-68
2023/02/09 00:02:54;;;;;;;12.55;5.05;;;;;;;;;;4924865;28;20135;-66
2023/02/09 00:05:29;;;;;;;10.52;4.43;;;;;;;;;;4948530;28;20062;-67
2023/02/09 00:07:58;;;;;;;12.38;4.35;;;;;;;;;;4953080;28;20059;-68
2023/02/09 00:10:31;;;;;;;12.38;4.68;;;;;;;;;;4941688;28;20072;-70
2023/02/09 00:15:47;;;;;;;11.10;4.57;;;;;;;;;;4959814;28;20080;-68
2023/02/09 00:18:18;;;;;;;10.98;4.13;;;;;;;;;;4980834;28;20210;-73
2023/02/09 00:20:44;;;;;;;;;;;;;;;;;;4974733;28;20077;-68
2023/02/09 00:23:12;;;;;;;9.60;4.28;;;;;;;;;;4968114;28;19926;-67
2023/02/09 00:25:39;;;;;;;16.57;4.50;;;;;;;;;;4961670;28;20049;-73
2023/02/09 00:28:06;;;;;;;11.65;4.68;;;;;;;;;;4941818;28;20058;-71
2023/02/09 00:30:32;;;;;;;12.77;4.30;;;;;;;;;;4950863;28;20121;-68
2023/02/09 00:33:01;;;;;;;11.65;4.88;;;;;;;;;;4903867;28;20534;-69
2023/02/09 00:35:28;;;;;;;10.43;4.32;;;;;;;;;;4963321;28;20050;-69
2023/02/09 00:37:55;;;;;;;14.18;4.28;;;;;;;;;;4955185;28;20165;-75
2023/02/09 00:40:26;;;;;;;14.10;4.57;;;;;;;;;;4947231;28;20078;-72
2023/02/09 00:42:52;;;;;;;9.90;3.88;;;;;;;;;;4913509;28;20267;-70
2023/02/09 00:45:20;;;;;;;13.43;5.05;;;;;;;;;;4947608;28;20070;-70
2023/02/09 00:47:47;;;;;;;13.30;4.47;;;;;;;;;;4944682;28;20058;-69
2023/02/09 00:50:16;;;;;;;10.43;4.50;;;;;;;;;;4967475;28;20209;-72
2023/02/09 00:57:53;;;;;;;12.82;4.30;;;;;;;;;;4960044;28;20436;-67
2023/02/09 01:00:22;;;;;;;9.52;4.25;;;;;;;;;;4932656;28;20063;-71
2023/02/09 01:02:49;;;;;;;10.90;4.18;;;;;;;;;;4901718;28;20588;-67
2023/02/09 01:05:21;;;;;;;10.90;4.10;;;;;;;;;;4920314;28;20149;-70
2023/02/09 01:07:51;;;;;;;11.88;4.63;;;;;;;;;;4949281;28;20208;-68
2023/02/09 01:10:20;;;;;;;10.90;4.18;;;;;;;;;;4932442;28;20086;-67
2023/02/09 01:12:50;;;;;;;11.10;4.50;;;;;;;;;;4902267;28;20058;-71
2023/02/09 01:15:21;;;;;;;11.27;4.50;;;;;;;;;;4921468;28;20061;-70
2023/02/09 01:17:47;;;;;;;11.25;4.25;;;;;;;;;;4938250;28;20362;-67
2023/02/09 01:20:14;;;;;;;10.00;4.25;;;;;;;;;;4986923;28;20211;-71
2023/02/09 01:22:41;;;;;;;10.43;4.25;;;;;;;;;;4919801;28;20063;-70
2023/02/09 01:25:08;;;;;;;13.10;4.72;;;;;;;;;;4921886;28;20918;-66
2023/02/09 01:27:37;;;;;;;9.05;3.95;;;;;;;;;;4970666;28;20058;-67
2023/02/09 01:30:04;;;;;;;11.25;3.92;;;;;;;;;;4963943;28;20065;-72
2023/02/09 01:32:35;;;;;;;9.70;4.05;;;;;;;;;;4939074;28;20138;-66
2023/02/09 01:35:04;;;;;;;11.10;4.57;;;;;;;;;;4947733;28;20061;-66
2023/02/09 01:37:33;;;;;;;13.27;4.05;;;;;;;;;;4971323;28;20050;-66
2023/02/09 01:40:00;;;;;;;10.65;4.50;;;;;;;;;;4950756;28;20058;-70
2023/02/09 01:42:27;;;;;;;12.60;4.22;;;;;;;;;;4960133;28;20138;-66
2023/02/09 01:45:14;;;;;;;12.07;4.45;;;;;;;;;;4950580;28;20054;-70
2023/02/09 01:47:44;;;;;;;9.65;3.95;;;;;;;;;;4961884;28;20085;-66
2023/02/09 01:50:14;;;;;;;10.63;4.32;;;;;;;;;;4966192;28;20058;-70
2023/02/09 01:52:42;;;;;;;12.15;4.47;;;;;;;;;;4938610;28;20061;-71
2023/02/09 01:55:12;;;;;;;8.95;3.72;;;;;;;;;;4973500;28;20053;-69
2023/02/09 01:57:39;;;;;;;10.60;3.92;;;;;;;;;;4941334;28;20054;-65
2023/02/09 02:00:15;;;;;;;10.60;4.00;;;;;;;;;;4968280;28;20145;-69
2023/02/09 02:02:46;;;;;;;10.15;4.00;;;;;;;;;;4952748;28;20145;-70
2023/02/09 02:05:15;;;;;;;11.10;4.00;;;;;;;;;;4941449;28;20055;-68
2023/02/09 02:07:44;;;;;;;10.10;3.95;;;;;;;;;;4941287;28;20181;-68
2023/02/09 02:10:12;;;;;;;10.40;3.58;;;;;;;;;;4939729;28;20050;-69
2023/02/09 02:12:39;;;;;;;10.90;4.57;;;;;;;;;;4942386;28;20188;-70
2023/02/09 02:15:13;;;;;;;8.65;3.90;;;;;;;;;;4924413;28;20050;-65
2023/02/09 02:17:55;;;;;;;10.27;3.67;;;;;;;;;;4975384;28;20050;-70
2023/02/09 02:20:46;;;;;;;10.98;4.20;;;;;;;;;;4981132;28;20049;-69
2023/02/09 02:23:17;;;;;;;12.68;4.40;;;;;;;;;;4940069;28;20097;-70
2023/02/09 02:26:02;;;;;;;11.70;4.30;;;;;;;;;;4945447;28;20054;-68
2023/02/09 02:28:32;;;;;;;11.95;4.00;;;;;;;;;;4973808;28;20058;-67
2023/02/09 02:31:14;;;;;;;11.90;4.32;;;;;;;;;;4973181;28;20058;-66
2023/02/09 02:33:45;;;;;;;10.57;3.88;;;;;;;;;;4933711;28;20050;-71
2023/02/09 02:36:16;;;;;;;10.93;4.25;;;;;;;;;;4974419;28;20038;-70
2023/02/09 02:38:48;;;;;;;8.73;3.63;;;;;;;;;;4978612;28;20081;-69
2023/02/09 02:41:17;;;;;;;9.77;3.75;;;;;;;;;;4964509;28;20090;-67
2023/02/09 02:43:49;;;;;;;9.90;3.80;;;;;;;;;;4906698;28;20058;-70
2023/02/09 02:46:19;;;;;;;9.32;3.97;;;;;;;;;;4889781;28;20051;-66
2023/02/09 02:48:51;;;;;;;12.25;4.22;;;;;;;;;;4927521;28;20140;-67
2023/02/09 02:56:25;;;;;;;9.70;3.92;;;;;;;;;;4945087;28;20054;-67
2023/02/09 02:58:54;;;;;;;13.25;4.22;;;;;;;;;;4917314;28;20062;-68
2023/02/09 03:01:23;;;;;;;14.13;4.32;;;;;;;;;;4932099;28;20174;-68
2023/02/09 03:03:56;;;;;;;11.85;4.22;;;;;;;;;;4768316;29;20052;-68
2023/02/09 03:06:23;;;;;;;9.35;3.92;;;;;;;;;;4814446;29;20067;-67
2023/02/09 03:08:50;;;;;;;8.63;3.65;;;;;;;;;;4864788;29;20044;-68
2023/02/09 03:11:23;;;;;;;13.77;4.72;;;;;;;;;;4888856;28;20054;-70
2023/02/09 03:13:59;;;;;;;10.10;3.72;;;;;;;;;;4869348;29;20093;-67
2023/02/09 03:16:32;;;;;;;12.23;4.82;;;;;;;;;;4880639;28;20062;-66
2023/02/09 03:19:04;;;;;;;11.40;4.38;;;;;;;;;;4900869;28;20043;-69
2023/02/09 03:21:36;;;;;;;11.10;4.53;;;;;;;;;;4936621;28;20129;-67
2023/02/09 03:24:04;;;;;;;11.07;3.97;;;;;;;;;;4903726;28;20047;-68
2023/02/09 03:26:37;;;;;;;10.10;4.28;;;;;;;;;;4920512;28;20050;-66
2023/02/09 03:29:05;;;;;;;10.05;3.80;;;;;;;;;;4901344;28;20059;-69
2023/02/09 03:31:34;;;;;;;9.07;3.88;;;;;;;;;;4905844;29;20073;-66
2023/02/09 03:34:08;;;;;;;12.00;4.18;;;;;;;;;;4869336;28;20154;-66
2023/02/09 03:36:36;;;;;;;10.13;3.97;;;;;;;;;;4905085;29;20050;-66
2023/02/09 03:39:03;;;;;;;9.38;3.83;;;;;;;;;;4891731;28;20125;-66
2023/02/09 03:41:34;;;;;;;8.60;3.78;;;;;;;;;;4916962;28;20051;-69
2023/02/09 03:46:46;;;;;;;9.27;3.95;;;;;;;;;;4915002;28;20158;-70
2023/02/09 03:49:22;;;;;;;9.30;3.63;;;;;;;;;;4901624;29;20051;-66
2023/02/09 03:51:49;;;;;;;11.60;4.00;;;;;;;;;;4891983;29;20142;-69
2023/02/09 03:54:17;;;;;;;11.23;4.22;;;;;;;;;;4894550;28;20134;-70
2023/02/09 03:56:47;;;;;;;9.27;3.65;;;;;;;;;;4887998;28;20217;-66
2023/02/09 03:59:14;;;;;;;11.52;4.07;;;;;;;;;;4929340;28;20117;-70
2023/02/09 04:01:40;;;;;;;10.82;4.00;;;;;;;;;;4912824;29;20066;-68
2023/02/09 04:04:07;;;;;;;10.43;4.00;;;;;;;;;;4906416;28;20078;-68
2023/02/09 04:06:35;;;;;;;13.35;4.13;;;;;;;;;;4940304;28;20115;-66
2023/02/09 04:09:03;;;;;;;10.38;4.28;;;;;;;;;;4926276;28;20137;-70
2023/02/09 04:11:30;;;;;;;10.32;4.55;;;;;;;;;;4895929;28;20289;-69
2023/02/09 04:13:58;;;;;;;10.98;4.43;;;;;;;;;;4889717;28;20147;-69
2023/02/09 04:16:24;;;;;;;11.10;4.38;;;;;;;;;;4882289;29;20047;-67
2023/02/09 04:18:51;;;;;;;11.18;4.32;;;;;;;;;;4902620;28;20047;-68
2023/02/09 04:21:20;;;;;;;11.38;4.15;;;;;;;;;;4879671;28;20146;-69
2023/02/09 04:23:50;;;;;;;12.35;4.22;;;;;;;;;;4885068;28;20054;-68
2023/02/09 04:26:17;;;;;;;11.63;4.20;;;;;;;;;;4925030;28;20049;-69
2023/02/09 04:28:43;;;;;;;13.38;4.63;;;;;;;;;;4920398;28;20051;-69
2023/02/09 04:31:17;;;;;;;12.00;4.47;;;;;;;;;;4947534;28;20082;-68
2023/02/09 04:33:45;;;;;;;11.98;4.40;;;;;;;;;;4876308;28;20060;-66
2023/02/09 04:36:12;;;;;;;11.55;4.63;;;;;;;;;;4898148;28;20065;-69
2023/02/09 04:38:39;;;;;;;11.40;4.60;;;;;;;;;;4921878;28;20142;-67
2023/02/09 04:41:09;;;;;;;10.63;4.72;;;;;;;;;;4918402;29;20067;-66
2023/02/09 04:43:46;;;;;;;12.15;5.05;;;;;;;;;;4873744;29;20055;-70
2023/02/09 04:46:15;;;;;;;9.52;4.47;;;;;;;;;;4901392;29;20059;-69
2023/02/09 04:48:43;;;;;;;11.15;4.18;;;;;;;;;;4895812;29;20077;-70
2023/02/09 04:51:12;;;;;;;10.80;4.45;;;;;;;;;;4928031;28;20066;-68
2023/02/09 04:53:39;;;;;;;9.55;4.22;;;;;;;;;;4893857;28;20054;-70
2023/02/09 04:56:06;;;;;;;11.30;4.57;;;;;;;;;;4910657;28;20050;-67
2023/02/09 05:01:21;;;;;;;14.48;4.55;;;;;;;;;;4880247;28;20142;-67
2023/02/09 05:03:53;;;;;;;11.25;4.28;;;;;;;;;;4898885;28;20055;-68
2023/02/09 05:06:20;;;;;;;9.18;3.95;;;;;;;;;;4902648;28;20054;-69
2023/02/09 05:08:47;;;;;;;11.82;4.60;;;;;;;;;;4913288;28;20069;-66
2023/02/09 05:11:14;;;;;;;12.70;4.93;;;;;;;;;;4916285;28;20055;-67
2023/02/09 05:13:42;;;;;;;13.73;5.35;;;;;;;;;;4879830;28;20063;-67
2023/02/09 05:16:09;;;;;;;11.40;4.57;;;;;;;;;;4893479;28;20059;-69
2023/02/09 05:18:36;;;;;;;12.85;4.53;;;;;;;;;;4937686;28;20087;-66
2023/02/09 05:21:12;;;;;;;10.65;4.68;;;;;;;;;;4919773;28;20066;-70
2023/02/09 05:23:42;;;;;;;10.27;4.38;;;;;;;;;;4888799;28;20070;-69
2023/02/09 05:26:09;;;;;;;12.73;4.68;;;;;;;;;;4893333;29;20048;-70
2023/02/09 05:28:36;;;;;;;13.15;4.68;;;;;;;;;;4857448;29;20064;-67
2023/02/09 05:31:04;;;;;;;9.93;4.18;;;;;;;;;;4883797;28;20059;-68
2023/02/09 05:33:31;;;;;;;13.43;5.13;;;;;;;;;;4894832;28;20065;-67
2023/02/09 05:36:07;;;;;;;11.10;4.47;;;;;;;;;;4882184;28;20079;-69
2023/02/09 05:38:33;;;;;;;14.73;4.93;;;;;;;;;;4916567;28;20055;-65
2023/02/09 05:41:03;;;;;;;10.52;4.45;;;;;;;;;;4900167;28;20061;-69
2023/02/09 05:43:30;;;;;;;11.75;4.80;;;;;;;;;;4901561;28;20073;-70
2023/02/09 05:45:57;;;;;;;12.15;4.28;;;;;;;;;;4923240;28;20054;-69
2023/02/09 05:48:25;;;;;;;10.32;4.53;;;;;;;;;;4927052;28;20078;-67
2023/02/09 05:50:52;;;;;;;12.52;5.13;;;;;;;;;;4932295;28;20125;-68
2023/02/09 05:53:20;;;;;;;12.00;4.20;;;;;;;;;;4895178;28;20058;-69
2023/02/09 05:55:47;;;;;;;11.80;3.97;;;;;;;;;;4883576;28;20183;-66
2023/02/09 05:58:15;;;;;;;11.23;4.40;;;;;;;;;;4912620;28;20055;-68
2023/02/09 06:00:42;;;;;;;10.00;4.55;;;;;;;;;;4883331;28;20059;-67
2023/02/09 06:03:10;;;;;;;14.13;5.00;;;;;;;;;;4862097;29;20052;-67
2023/02/09 06:05:45;;;;;;;12.48;4.68;;;;;;;;;;4864748;29;20053;-70
2023/02/09 06:08:14;;;;;;;11.60;4.20;;;;;;;;;;4861799;29;20060;-69
2023/02/09 06:10:41;;;;;;;11.13;4.40;;;;;;;;;;4866603;29;20060;-68
2023/02/09 06:13:07;;;;;;;9.85;4.40;;;;;;;;;;4874921;29;20063;-69
2023/02/09 06:15:34;;;;;;;12.60;4.95;;;;;;;;;;4904203;28;20158;-66
2023/02/09 06:18:01;;;;;;;11.98;4.72;;;;;;;;;;4894481;28;20164;-66
2023/02/09 06:20:28;;;;;;;11.40;4.38;;;;;;;;;;4892265;28;20055;-67
2023/02/09 06:22:56;;;;;;;10.52;4.30;;;;;;;;;;4900619;28;20054;-67
2023/02/09 06:25:28;;;;;;;9.55;4.45;;;;;;;;;;4850732;29;20056;-66
2023/02/09 06:27:56;;;;;;;12.50;4.57;;;;;;;;;;4928936;28;20051;-69
2023/02/09 06:30:25;;;;;;;10.43;4.63;;;;;;;;;;4928720;28;20051;-69
2023/02/09 06:32:54;;;;;;;12.43;4.32;;;;;;;;;;4907689;28;20059;-66
2023/02/09 06:35:20;;;;;;;11.55;4.30;;;;;;;;;;4906024;28;20650;-67
2023/02/09 06:37:50;;;;;;;11.05;4.55;;;;;;;;;;4916822;28;20134;-69
2023/02/09 06:40:21;;;;;;;11.55;4.13;;;;;;;;;;4934812;28;20120;-68
2023/02/09 06:42:52;;;;;;;11.18;4.43;;;;;;;;;;4925505;28;20074;-70
2023/02/09 06:45:21;;;;;;;9.88;4.10;;;;;;;;;;4858251;28;20059;-68
2023/02/09 06:47:52;;;;;;;10.77;4.40;;;;;;;;;;4911088;28;20067;-68
2023/02/09 06:50:22;;;;;;;10.93;4.85;;;;;;;;;;4905784;29;20055;-68
2023/02/09 06:52:49;;;;;;;11.13;4.05;;;;;;;;;;4945089;28;20056;-67
2023/02/09 06:55:18;;;;;;;14.70;5.10;;;;;;;;;;4905639;28;20054;-67
2023/02/09 06:57:50;;;;;;;10.75;4.25;;;;;;;;;;4888657;29;20051;-68
2023/02/09 07:00:26;;;;;;;12.63;4.85;;;;;;;;;;4900025;28;20051;-68
2023/02/09 07:02:53;;;;;;;13.00;4.82;;;;;;;;;;4932671;28;20082;-68
2023/02/09 07:05:28;;;;;;;12.40;4.90;;;;;;;;;;4892489;28;20056;-68
2023/02/09 07:08:02;;;;;;;11.13;4.25;;;;;;;;;;4887806;28;20137;-68
2023/02/09 07:10:32;;;;;;;10.73;4.68;;;;;;;;;;4911206;28;20062;-67
2023/02/09 07:13:05;;;;;;;12.27;5.35;;;;;;;;;;4917290;28;20251;-68
2023/02/09 07:15:55;;;;;;;13.98;4.93;;;;;;;;;;4829980;28;20115;-68
2023/02/09 07:18:23;;;;;;;10.10;4.28;;;;;;;;;;4907332;28;20058;-72
2023/02/09 07:20:53;;;;;;;12.60;4.45;;;;;;;;;;4910970;28;20086;-70
2023/02/09 07:23:23;;;;;;;10.38;4.65;;;;;;;;;;4895056;29;20064;-71
2023/02/09 07:25:54;;;;;;;8.77;4.10;;;;;;;;;;4843870;28;20063;-70
2023/02/09 07:28:35;;;;;;;11.65;4.82;;;;;;;;;;4871648;29;20052;-71
2023/02/09 07:31:17;;;;;;;12.40;4.72;;;;;;;;;;4855178;29;20056;-69
2023/02/09 07:33:51;;;;;;;11.90;4.75;;;;;;;;;;4843837;29;20082;-69
2023/02/09 07:36:20;;;;;;;11.40;4.68;;;;;;;;;;4854683;29;20065;-67
2023/02/09 07:38:52;;;;;;;10.88;4.70;;;;;;;;;;4843125;29;20056;-71
2023/02/09 07:41:24;;;;;;;11.65;4.53;;;;;;;;;;4838325;29;20079;-71
2023/02/09 07:44:00;;;;;;;12.73;4.10;;;;;;;;;;4874402;28;20090;-67
2023/02/09 07:46:34;;;;;;;14.13;4.85;;;;;;;;;;4878761;28;20063;-68
2023/02/09 07:49:17;;;;;;;10.90;4.72;;;;;;;;;;4920258;29;20063;-72
2023/02/09 07:52:02;;;;;;;10.90;4.50;;;;;;;;;;4875097;29;20138;-73
2023/02/09 08:18:21;;;;;;;15.75;5.68;;;;;;;;;;5659526;22;15143920;-70
2023/02/09 08:20:54;;;;;;;15.55;5.50;;;;;;;;;;6177483;22;20028;-69
2023/02/09 08:23:23;;;;;;;18.23;6.03;;;;;;;;;;6197964;22;20023;-73
2023/02/09 08:25:58;;;;;;;13.73;6.20;;;;;;;;;;6150126;22;20020;-69
2023/02/09 08:28:43;;;;;;;13.93;5.85;;;;;;;;;;6206960;23;20059;-70
2023/02/09 08:31:12;;;;;;;16.35;6.13;;;;;;;;;;6182307;22;20089;-70
2023/02/09 08:33:44;;;;;;;15.15;5.43;;;;;;;;;;6174254;22;20024;-72
2023/02/09 08:36:13;;;;;;;19.58;6.85;;;;;;;;;;6182557;22;20020;-70
2023/02/09 08:38:41;;;;;;;;;;;;;;;;;;6187482;23;20072;-73
2023/02/09 08:41:18;;;;;;;16.27;5.50;;;;;;;;;;6231131;22;19998;-69
2023/02/09 08:43:50;;;;;;;15.35;6.32;;;;;;;;;;6174778;22;20027;-72
2023/02/09 08:48:48;;;;;;;16.10;6.32;;;;;;;;;;6012085;23;20209;-72
2023/02/09 08:51:20;;;;;;;17.83;6.28;;;;;;;;;;6052823;23;20026;-72
2023/02/09 08:54:01;;;;;;;16.80;6.30;;;;;;;;;;6044985;23;20030;-67
2023/02/09 08:58:54;;;;;;;17.63;6.95;;;;;;;;;;5973368;23;20027;-68
2023/02/09 09:01:21;;;;;;;20.15;7.00;;;;;;;;;;6000216;23;20053;-71
2023/02/09 09:09:14;;;;;;;17.40;6.45;;;;;;;;;;5040898;27;20412;-72
2023/02/09 09:11:46;;;;;;;16.88;6.68;;;;;;;;;;5000732;28;20064;-70
2023/02/09 09:14:13;;;;;;;16.70;5.65;;;;;;;;;;5010697;28;20052;-68
2023/02/09 09:16:42;;;;;;;17.23;6.07;;;;;;;;;;4953410;28;20157;-72
2023/02/09 09:19:12;;;;;;;19.00;6.18;;;;;;;;;;4983944;28;20106;-70
2023/02/09 09:21:41;;;;;;;13.70;6.10;;;;;;;;;;4976197;28;20049;-71
2023/02/09 09:24:18;;;;;;;15.00;5.53;;;;;;;;;;4958936;28;20053;-71
2023/02/09 09:32:42;;;;;;;19.65;5.82;;;;;;;;;;4914188;28;20064;-71
2023/02/09 09:50:32;;;;;;;15.10;5.70;;;;;;;;;;5060701;27;20201;-71
2023/02/09 09:55:46;;;;;;;14.57;5.60;;;;;;;;;;4949971;28;20045;-79
2023/02/09 09:58:19;;;;;;;17.52;6.43;;;;;;;;;;4915089;28;20062;-72
2023/02/09 10:10:01;;;;;;;15.70;5.78;;;;;;;;;;5010627;27;20644;-72
2023/02/09 10:12:34;;;;;;;15.05;5.25;;;;;;;;;;4912525;28;20086;-69
2023/02/09 10:17:48;;;;;;;17.25;5.63;;;;;;;;;;4816324;28;20087;-75
2023/02/09 10:20:17;;;;;;;15.63;5.85;;;;;;;;;;4940284;28;20050;-70
2023/02/09 10:22:43;;;;;;;;;;;;;;;;;;4934241;28;20104;-76
2023/02/09 10:25:30;;;;;;;16.08;6.03;;;;;;;;;;4950002;28;20034;-64
2023/02/09 10:28:05;;;;;;;16.35;5.80;;;;;;;;;;4944106;28;20480;-71
2023/02/09 10:30:34;;;;;;;14.40;5.72;;;;;;;;;;4988683;28;20057;-75
2023/02/09 10:33:01;;;;;;;12.15;5.00;;;;;;;;;;4999630;28;20220;-76
2023/02/09 10:35:39;;;;;;;13.82;5.32;;;;;;;;;;4966821;28;20126;-69
2023/02/09 10:38:15;;;;;;;17.85;6.18;;;;;;;;;;4905380;28;20054;-70
2023/02/09 10:40:47;;;;;;;13.57;5.25;;;;;;;;;;4910802;28;20059;-73
2023/02/09 10:46:17;;;;;;;11.90;5.00;;;;;;;;;;5050719;27;1492818;-70
2023/02/09 10:48:47;;;;;;;16.70;5.60;;;;;;;;;;5000910;28;20056;-69
2023/02/09 10:51:15;;;;;;;14.10;5.70;;;;;;;;;;5039625;28;20193;-71
2023/02/09 10:53:58;;;;;;;17.15;6.15;;;;;;;;;;5040005;28;20044;-69
2023/02/09 10:56:28;;;;;;;13.13;5.50;;;;;;;;;;5046647;28;20060;-75
2023/02/09 10:58:59;;;;;;;13.80;5.25;;;;;;;;;;5020652;28;20056;-75
2023/02/09 11:01:40;;;;;;;11.68;4.93;;;;;;;;;;5017761;28;20107;-70
2023/02/09 11:04:19;;;;;;;15.30;5.75;;;;;;;;;;4997570;28;20059;-73
2023/02/09 11:06:45;;;;;;;;;;;;;;;;;;5025290;28;20067;-73
2023/02/09 11:09:14;;;;;;;13.18;5.50;;;;;;;;;;5022458;28;20023;-73
2023/02/09 11:11:40;;;;;;;;;;;;;;;;;;5005362;28;20052;-72
2023/02/09 11:14:29;;;;;;;13.25;5.50;;;;;;;;;;5014865;28;19960;-67
2023/02/09 11:16:56;;;;;;;;;;;;;;;;;;4981783;28;20175;-70
2023/02/09 11:19:32;;;;;;;13.95;6.00;;;;;;;;;;5018265;28;19924;-75
2023/02/09 11:22:05;;;;;;;17.50;6.57;;;;;;;;;;5044231;28;20056;-70
2023/02/09 11:24:42;;;;;;;15.70;6.65;;;;;;;;;;5028008;28;20137;-72
2023/02/09 11:27:14;;;;;;;23.48;5.97;;;;;;;;;;5031383;28;20052;-70
2023/02/09 11:29:48;;;;;;;13.52;5.60;;;;;;;;;;4992047;28;20049;-74
2023/02/09 11:32:19;;;;;;;14.75;6.53;;;;;;;;;;4996954;28;20151;-67
2023/02/09 11:35:03;;;;;;;16.95;6.88;;;;;;;;;;5054156;28;20051;-68
2023/02/09 11:37:45;;;;;;;13.98;5.63;;;;;;;;;;4961152;28;20052;-69
2023/02/09 11:40:28;;;;;;;14.18;6.50;;;;;;;;;;5018964;28;20052;-73
2023/02/09 11:42:59;;;;;;;18.13;5.78;;;;;;;;;;5038062;28;20056;-79
2023/02/09 11:45:34;;;;;;;14.32;5.93;;;;;;;;;;5045672;28;20166;-69
2023/02/09 11:50:33;;;;;;;14.13;5.93;;;;;;;;;;4954362;28;20342;-75
2023/02/09 11:53:02;;;;;;;21.00;6.37;;;;;;;;;;4971572;28;20050;-71
2023/02/09 11:55:34;;;;;;;15.90;6.03;;;;;;;;;;4965688;28;20320;-77
2023/02/09 11:58:11;;;;;;;18.20;7.53;;;;;;;;;;4942312;28;20085;-70
2023/02/09 12:00:42;;;;;;;17.65;5.95;;;;;;;;;;4948109;28;20149;-74
2023/02/09 12:03:13;;;;;;;18.25;6.50;;;;;;;;;;4978966;28;20061;-71
2023/02/09 12:05:44;;;;;;;20.42;6.70;;;;;;;;;;4928684;28;20138;-70
2023/02/09 12:11:45;;;;;;;15.23;5.65;;;;;;;;;;4956038;27;20508;-71
2023/02/09 12:14:20;;;;;;;18.05;6.95;;;;;;;;;;4964179;28;20054;-72
2023/02/09 12:16:52;;;;;;;18.00;6.10;;;;;;;;;;4931526;28;20058;-69
2023/02/09 12:19:37;;;;;;;16.08;6.65;;;;;;;;;;4930158;28;20113;-71
2023/02/09 12:22:23;;;;;;;22.50;7.43;;;;;;;;;;4951203;28;20082;-71
2023/02/09 12:25:07;;;;;;;15.15;6.75;;;;;;;;;;4988530;28;20069;-71
2023/02/09 12:28:03;;;;;;;17.92;6.60;;;;;;;;;;4964634;28;20081;-76
2023/02/09 12:30:48;;;;;;;13.15;6.07;;;;;;;;;;4959197;28;20046;-72
2023/02/09 12:33:18;;;;;;;15.77;6.78;;;;;;;;;;4939555;28;20054;-78
2023/02/09 12:35:59;;;;;;;16.67;7.07;;;;;;;;;;4900315;28;20056;-71
2023/02/09 12:41:07;;;;;;;16.30;7.03;;;;;;;;;;4799647;29;20168;-73
2023/02/09 12:43:37;;;;;;;17.67;7.30;;;;;;;;;;4905843;28;20161;-71
2023/02/09 12:46:25;;;;;;;18.42;7.35;;;;;;;;;;4925579;28;20058;-69
2023/02/09 12:49:07;;;;;;;16.30;6.70;;;;;;;;;;4874383;28;20058;-74
2023/02/09 12:51:51;;;;;;;15.40;6.28;;;;;;;;;;4908447;28;20057;-73
2023/02/09 12:54:36;;;;;;;19.05;6.82;;;;;;;;;;4948431;28;20168;-73
2023/02/09 12:57:24;;;;;;;14.85;6.15;;;;;;;;;;4943317;28;20059;-76
2023/02/09 13:00:07;;;;;;;14.82;6.53;;;;;;;;;;4913342;28;20047;-78
2023/02/09 13:02:41;;;;;;;16.83;7.10;;;;;;;;;;4943805;28;20141;-81
2023/02/09 13:05:11;;;;;;;17.13;7.28;;;;;;;;;;4918251;28;20059;-74
2023/02/09 13:07:52;;;;;;;18.70;6.78;;;;;;;;;;4912760;28;20059;-72
2023/02/09 13:10:25;;;;;;;15.55;7.13;;;;;;;;;;4884663;28;20150;-75
2023/02/09 13:13:03;;;;;;;17.52;6.93;;;;;;;;;;4936857;28;20050;-72
2023/02/09 13:16:01;;;;;;;15.43;6.35;;;;;;;;;;4845829;29;20079;-78
2023/02/09 13:21:55;;;;;;;17.73;7.25;;;;;;;;;;5046376;27;20458;-76
2023/02/09 13:24:32;;;;;;;15.80;7.00;;;;;;;;;;4926265;28;20058;-68
2023/02/09 13:31:58;;;;;;;18.67;6.85;;;;;;;;;;4992416;27;20462;-72
2023/02/09 13:34:38;;;;;;;16.77;6.82;;;;;;;;;;4875343;28;20096;-75
2023/02/09 13:39:36;;;;;;;17.17;7.47;;;;;;;;;;4784068;28;20052;-74
2023/02/09 13:42:14;;;;;;;16.67;7.57;;;;;;;;;;4906082;28;20051;-72
2023/02/09 13:44:44;;;;;;;15.38;6.78;;;;;;;;;;4920462;28;20191;-71
2023/02/09 13:47:14;;;;;;;17.90;6.97;;;;;;;;;;4916677;28;20059;-72
2023/02/09 13:49:41;;;;;;;15.68;6.85;;;;;;;;;;4907895;28;20061;-73
2023/02/09 13:52:08;;;;;;;17.95;8.20;;;;;;;;;;5004288;28;20050;-74
2023/02/09 13:54:37;;;;;;;16.27;7.85;;;;;;;;;;4999496;28;20152;-74
2023/02/09 13:57:13;;;;;;;19.15;8.27;;;;;;;;;;5022503;28;20057;-76
2023/02/09 13:59:42;;;;;;;20.88;7.40;;;;;;;;;;4961684;28;20059;-68
2023/02/09 14:02:21;;;;;;;23.50;7.75;;;;;;;;;;4996422;28;20056;-73
2023/02/09 14:04:56;;;;;;;18.45;7.32;;;;;;;;;;4999600;28;20222;-76
2023/02/09 14:07:28;;;;;;;17.05;6.60;;;;;;;;;;4977333;28;20061;-75
2023/02/09 14:25:35;;;;;;;16.05;6.22;;;;;;;;;;5015728;27;20391;-79
2023/02/09 14:28:16;;;;;;;19.85;8.27;;;;;;;;;;4994372;28;20049;-72
2023/02/09 14:30:54;;;;;;;19.13;7.65;;;;;;;;;;4976447;28;20057;-74
2023/02/09 14:33:27;;;;;;;19.08;7.70;;;;;;;;;;5014934;28;20056;-77
2023/02/09 14:35:54;;;;;;;16.75;7.30;;;;;;;;;;5001200;28;20049;-73
2023/02/09 14:38:34;;;;;;;16.58;7.65;;;;;;;;;;4978066;28;20049;-70
2023/02/09 14:41:29;;;;;;;20.23;7.93;;;;;;;;;;4883368;28;20055;-76
2023/02/09 14:44:19;;;;;;;18.85;7.68;;;;;;;;;;4921703;28;20048;-67
2023/02/09 14:46:48;;;;;;;17.80;8.02;;;;;;;;;;4932125;28;20086;-66
2023/02/09 14:49:22;;;;;;;21.65;8.27;;;;;;;;;;4947244;28;20057;-74
2023/02/09 14:51:55;;;;;;;20.88;8.75;;;;;;;;;;4909731;28;20246;-74
2023/02/09 14:54:23;;;;;;;20.95;8.20;;;;;;;;;;5003464;28;20047;-75
2023/02/09 14:56:53;;;;;;;20.40;8.32;;;;;;;;;;5019072;28;20064;-70
2023/02/09 14:59:36;;;;;;;19.70;7.93;;;;;;;;;;5027980;28;20116;-68
2023/02/09 15:02:25;;;;;;;19.58;8.27;;;;;;;;;;4983629;28;20204;-70
2023/02/09 15:20:59;;;;;;;21.90;10.50;;;;;;;;;;5604729;21;15742068;-74
2023/02/09 15:47:52;;;;;;;19.27;8.57;;;;;;;;;;6143918;23;20115;-78
2023/02/09 15:50:24;;;;;;;22.67;8.63;;;;;;;;;;6119106;23;20046;-74
2023/02/09 15:52:53;;;;;;;20.30;8.70;;;;;;;;;;6134383;23;20241;-76
2023/02/09 16:11:57;;;;;;;24.58;11.30;;;;;;;;;;6056607;22;7144204;-71
2023/02/09 16:14:47;;;;;;;22.58;9.57;;;;;;;;;;6128046;23;20020;-69
2023/02/09 16:23:23;;;;;;;22.67;9.18;;;;;;;;;;5000048;27;20456;-74
2023/02/09 16:38:38;;;;;;;21.70;9.15;;;;;;;;;;4961529;27;20948;-69
2023/02/09 16:44:19;;;;;;;20.13;9.13;;;;;;;;;;5017653;28;20461;-72
2023/02/09 16:46:50;;;;;;;21.25;9.05;;;;;;;;;;4985924;28;20173;-74
2023/02/09 16:49:27;;;;;;;22.30;9.02;;;;;;;;;;4934978;28;20131;-72
2023/02/09 17:08:47;;;;;;;20.15;7.60;;;;;;;;;;4716337;27;10178018;-76
2023/02/09 17:25:18;;;;;;;;;;;;;;;;;;;;;
2023/02/09 17:40:54;;;;;;;19.10;8.55;;;;;;;;;;4922178;28;20064;-83
2023/02/09 17:43:26;;;;;;;27.48;9.80;;;;;;;;;;4911102;28;20059;-78
2023/02/09 17:45:57;;;;;;;20.98;9.32;;;;;;;;;;4915708;28;20051;-73
2023/02/09 17:48:28;;;;;;;19.35;8.60;;;;;;;;;;4903838;28;20062;-82
2023/02/09 17:51:01;;;;;;;21.08;9.02;;;;;;;;;;4955337;28;20062;-80
2023/02/09 17:53:32;;;;;;;24.00;10.00;;;;;;;;;;4926237;28;20077;-75
2023/02/09 17:56:07;;;;;;;24.50;9.68;;;;;;;;;;4950372;28;20060;-81
2023/02/09 17:58:38;;;;;;;23.90;9.20;;;;;;;;;;4990433;28;20095;-71
2023/02/09 18:01:21;;;;;;;22.15;9.52;;;;;;;;;;4964606;28;20474;-70
2023/02/09 18:03:49;;;;;;;23.23;10.13;;;;;;;;;;4903508;28;20055;-74
2023/02/09 18:06:18;;;;;;;22.88;9.70;;;;;;;;;;4929759;28;20082;-76
2023/02/09 18:08:47;;;;;;;20.67;9.23;;;;;;;;;;4910817;28;20090;-76
2023/02/09 18:11:38;;;;;;;21.23;10.10;;;;;;;;;;4904062;28;20063;-80
2023/02/09 18:14:09;;;;;;;21.13;9.73;;;;;;;;;;4911879;28;20141;-79
2023/02/09 18:16:39;;;;;;;20.58;10.10;;;;;;;;;;4916747;28;20050;-70
2023/02/09 18:19:06;;;;;;;26.65;9.88;;;;;;;;;;4930061;28;20050;-80
2023/02/09 18:21:38;;;;;;;23.00;9.82;;;;;;;;;;4936739;28;20054;-75
2023/02/09 18:24:07;;;;;;;23.88;10.48;;;;;;;;;;4909997;28;20049;-79
2023/02/09 18:26:35;;;;;;;24.65;10.48;;;;;;;;;;4966610;28;20160;-77
2023/02/09 18:29:01;;;;;;;19.40;9.25;;;;;;;;;;4976167;28;20181;-75
2023/02/09 18:31:31;;;;;;;23.05;9.93;;;;;;;;;;4987034;28;20049;-77
2023/02/09 18:33:57;;;;;;;23.45;10.82;;;;;;;;;;4920634;28;20058;-79
2023/02/09 18:36:30;;;;;;;23.58;10.02;;;;;;;;;;4982391;28;20165;-71
2023/02/09 18:39:02;;;;;;;26.23;10.35;;;;;;;;;;4891414;28;20059;-75
2023/02/09 18:41:35;;;;;;;26.40;10.68;;;;;;;;;;4924290;28;20051;-81
2023/02/09 18:44:30;;;;;;;24.55;10.25;;;;;;;;;;4879108;28;20058;-73
2023/02/09 18:47:32;;;;;;;;;;;;;;;;;;;;;
2023/02/09 18:50:41;;;;;;;25.65;10.45;;;;;;;;;;4893924;28;20327;-69
2023/02/09 18:56:39;;;;;;;26.80;11.10;;;;;;;;;;5043968;27;20418;-71
2023/02/09 18:59:06;;;;;;;27.20;10.45;;;;;;;;;;4970074;28;20163;-76
2023/02/09 19:01:35;;;;;;;26.30;11.48;;;;;;;;;;4973649;28;20583;-78
2023/02/09 19:04:02;;;;;;;28.88;10.18;;;;;;;;;;5000462;28;20051;-73
2023/02/09 19:06:42;;;;;;;27.85;10.20;;;;;;;;;;5009533;28;20093;-74
2023/02/09 19:09:13;;;;;;;27.42;10.50;;;;;;;;;;4942704;28;20146;-74
2023/02/09 19:12:00;;;;;;;22.30;9.57;;;;;;;;;;4967792;28;20057;-74
2023/02/09 19:20:22;;;;;;;24.02;10.65;;;;;;;;;;4952630;27;20475;-72